Saint Stephens Church, Virginia
Current Conditions -  °F | °C
As of 10:15 AM on Saturday 20 Dec 2014 (Local Time) from KXSA Reporting Station
Clear Clear  
Wind Chill: 33°   Ceiling: Unl
Heat Index: 33°   Visibility: 10mi
Dew Point: 23°   Wind: 0mph
Humidity: 67%   Direction: NA
Pressure: 30.33"   Gusts: NA
Location:  37.81°N, 77.07°W
Report Text: KXSA 201515Z AUTO 00000KT 10SM CLR 00/M05 A3033 RMK AO2 T00031051
Loading
Personal Weather Stations






























Interactive Weather Map New forecast layout! Learn more

10-Day Weather Forecast

Advertisements
Track Severe Weather on mobile